createdAt,value
2018-08-17T00:00:47.924Z,95470.00
2018-08-17T00:03:18.316Z,95468.00
2018-08-17T00:05:48.644Z,95470.00
2018-08-17T00:08:18.868Z,95461.00
2018-08-17T00:10:49.147Z,95463.00
2018-08-17T00:13:19.578Z,95459.00
2018-08-17T00:15:49.940Z,95458.00
2018-08-17T00:18:20.336Z,95460.00
2018-08-17T00:20:50.744Z,95463.00
2018-08-17T00:23:21.213Z,95457.00
2018-08-17T00:25:51.565Z,95459.00
2018-08-17T00:28:21.992Z,95459.00
2018-08-17T00:30:52.749Z,95455.00
2018-08-17T00:33:23.048Z,95456.00
2018-08-17T00:35:53.605Z,95460.00
2018-08-17T00:38:23.876Z,95460.00
2018-08-17T00:40:54.304Z,95458.00
2018-08-17T00:43:24.600Z,95458.00
2018-08-17T00:45:54.919Z,95453.00
2018-08-17T00:48:25.348Z,95455.00
2018-08-17T00:50:55.725Z,95452.00
2018-08-17T00:53:26.067Z,95457.00
2018-08-17T00:55:56.414Z,95460.00
2018-08-17T00:58:26.847Z,95458.00
2018-08-17T01:00:57.260Z,95455.00
2018-08-17T01:03:28.872Z,95448.00
2018-08-17T01:05:59.348Z,95445.00
2018-08-17T01:08:29.552Z,95451.00
2018-08-17T01:10:59.836Z,95447.00
2018-08-17T01:13:30.225Z,95444.00
2018-08-17T01:16:00.613Z,95443.00
2018-08-17T01:18:31.180Z,95448.00
2018-08-17T01:21:01.697Z,95452.00
2018-08-17T01:23:33.440Z,95451.00
2018-08-17T01:26:04.428Z,95452.00
2018-08-17T01:28:35.170Z,95451.00
2018-08-17T01:31:05.683Z,95448.00
2018-08-17T01:33:35.895Z,95450.00
2018-08-17T01:36:06.417Z,95454.00
2018-08-17T01:38:36.942Z,95457.00
2018-08-17T01:41:07.229Z,95449.00
2018-08-17T01:43:37.507Z,95450.00
2018-08-17T01:46:07.705Z,95453.00
2018-08-17T01:48:38.095Z,95453.00
2018-08-17T01:51:08.253Z,95457.00
2018-08-17T01:53:38.510Z,95453.00
2018-08-17T01:56:08.977Z,95451.00
2018-08-17T01:58:39.856Z,95450.00
2018-08-17T02:01:10.203Z,95451.00
2018-08-17T02:03:40.859Z,95451.00
2018-08-17T02:06:11.116Z,95451.00
2018-08-17T02:08:42.067Z,95446.00
2018-08-17T02:11:12.357Z,95447.00
2018-08-17T02:13:43.243Z,95446.00
2018-08-17T02:16:13.469Z,95443.00
2018-08-17T02:18:43.859Z,95444.00
2018-08-17T02:21:14.227Z,95442.00
2018-08-17T02:23:44.658Z,95449.00
2018-08-17T02:26:15.048Z,95449.00
2018-08-17T02:28:45.394Z,95448.00
2018-08-17T02:31:15.728Z,95447.00
2018-08-17T02:33:46.295Z,95447.00
2018-08-17T02:36:18.108Z,95447.00
2018-08-17T02:38:48.322Z,95454.00
2018-08-17T02:41:18.820Z,95448.00
2018-08-17T02:43:49.491Z,95452.00
2018-08-17T02:46:19.956Z,95452.00
2018-08-17T02:48:50.361Z,95450.00
2018-08-17T02:51:20.559Z,95448.00
2018-08-17T02:53:55.368Z,95446.00
2018-08-17T02:56:25.708Z,95448.00
2018-08-17T02:58:58.253Z,95446.00
2018-08-17T03:01:30.417Z,95449.00
2018-08-17T03:04:01.045Z,95447.00
2018-08-17T03:06:33.510Z,95444.00
2018-08-17T03:09:04.469Z,95443.00
2018-08-17T03:11:34.977Z,95443.00
2018-08-17T03:14:05.959Z,95445.00
2018-08-17T03:16:36.729Z,95446.00
2018-08-17T03:19:07.184Z,95444.00
2018-08-17T03:21:37.431Z,95447.00
2018-08-17T03:24:08.116Z,95448.00
2018-08-17T03:26:38.728Z,95448.00
2018-08-17T03:29:09.056Z,95454.00
2018-08-17T03:31:39.486Z,95453.00
2018-08-17T03:34:09.798Z,95453.00
2018-08-17T03:36:39.921Z,95454.00
2018-08-17T03:39:11.230Z,95459.00
2018-08-17T03:41:41.656Z,95459.00
2018-08-17T03:44:11.879Z,95457.00
2018-08-17T03:46:42.588Z,95454.00
2018-08-17T03:49:13.278Z,95454.00
2018-08-17T03:51:44.973Z,95456.00
2018-08-17T03:54:16.161Z,95454.00
2018-08-17T03:56:48.474Z,95457.00
2018-08-17T03:59:18.856Z,95456.00
2018-08-17T04:01:49.318Z,95459.00
2018-08-17T04:04:19.655Z,95460.00
2018-08-17T04:06:49.861Z,95466.00
2018-08-17T04:09:20.302Z,95469.00
2018-08-17T04:11:50.833Z,95469.00
2018-08-17T04:14:21.748Z,95467.00
2018-08-17T04:16:52.195Z,95470.00
2018-08-17T04:19:22.770Z,95470.00
2018-08-17T04:21:53.012Z,95474.00
2018-08-17T04:24:23.238Z,95479.00
2018-08-17T04:26:53.828Z,95476.00
2018-08-17T04:29:24.257Z,95477.00
2018-08-17T04:31:54.729Z,95477.00
2018-08-17T04:34:25.277Z,95478.00
2018-08-17T04:36:55.611Z,95477.00
2018-08-17T04:39:25.888Z,95479.00
2018-08-17T04:41:56.075Z,95484.00
2018-08-17T04:44:26.360Z,95483.00
2018-08-17T04:46:56.685Z,95482.00
2018-08-17T04:49:27.119Z,95486.00
2018-08-17T04:51:58.089Z,95489.00
2018-08-17T04:54:28.363Z,95492.00
2018-08-17T04:56:58.704Z,95492.00
2018-08-17T04:59:28.960Z,95490.00
2018-08-17T05:01:59.728Z,95490.00
2018-08-17T05:04:30.671Z,95494.00
2018-08-17T05:07:04.637Z,95493.00
2018-08-17T05:09:35.606Z,95493.00
2018-08-17T05:12:06.113Z,95491.00
2018-08-17T05:14:36.341Z,95489.00
2018-08-17T05:17:06.620Z,95492.00
2018-08-17T05:19:36.991Z,95491.00
2018-08-17T05:22:07.368Z,95493.00
2018-08-17T05:24:37.553Z,95495.00
2018-08-17T05:27:07.888Z,95492.00
2018-08-17T05:29:38.175Z,95491.00
2018-08-17T05:32:08.523Z,95493.00
2018-08-17T05:34:38.783Z,95495.00
2018-08-17T05:37:09.311Z,95496.00
2018-08-17T05:39:40.324Z,95490.00
2018-08-17T05:42:12.697Z,95497.00
2018-08-17T05:44:43.312Z,95500.00
2018-08-17T05:47:13.636Z,95496.00
2018-08-17T05:49:43.764Z,95498.00
2018-08-17T05:52:15.085Z,95496.00
2018-08-17T05:54:46.051Z,95500.00
2018-08-17T05:57:16.315Z,95494.00
2018-08-17T05:59:47.397Z,95499.00
2018-08-17T06:02:18.152Z,95491.00
2018-08-17T06:04:53.030Z,95504.00
2018-08-17T06:07:24.447Z,95494.00
2018-08-17T06:09:55.834Z,95495.00
2018-08-17T06:12:26.583Z,95499.00
2018-08-17T06:14:56.836Z,95497.00
2018-08-17T06:17:28.108Z,95492.00
2018-08-17T06:19:59.620Z,95496.00
2018-08-17T06:22:30.404Z,95494.00
2018-08-17T06:25:03.496Z,95492.00
2018-08-17T06:27:34.636Z,95499.00
2018-08-17T06:30:10.124Z,95490.00
2018-08-17T06:32:40.334Z,95494.00
2018-08-17T06:35:11.676Z,95493.00
2018-08-17T06:37:43.127Z,95492.00
2018-08-17T06:40:16.451Z,95492.00
2018-08-17T06:42:48.204Z,95491.00
2018-08-17T06:45:18.486Z,95488.00
2018-08-17T06:47:52.408Z,95487.00
2018-08-17T06:50:24.452Z,95488.00
2018-08-17T06:52:54.580Z,95485.00
2018-08-17T06:55:25.299Z,95481.00
2018-08-17T06:57:55.916Z,95480.00
2018-08-17T07:00:27.092Z,95480.00
2018-08-17T07:02:58.216Z,95481.00
2018-08-17T07:05:29.112Z,95471.00
2018-08-17T07:07:59.607Z,95477.00
2018-08-17T07:10:30.922Z,95478.00
2018-08-17T07:13:03.528Z,95479.00
2018-08-17T07:15:37.394Z,95480.00
2018-08-17T07:18:08.677Z,95476.00
2018-08-17T07:20:41.741Z,95481.00
2018-08-17T07:23:15.540Z,95471.00
2018-08-17T07:26:32.861Z,95472.00
2018-08-17T07:29:03.391Z,95473.00
2018-08-17T07:31:33.617Z,95470.00
2018-08-17T07:34:09.758Z,95463.00
2018-08-17T07:36:40.093Z,95466.00
2018-08-17T07:39:10.325Z,95465.00
2018-08-17T07:41:41.757Z,95465.00
2018-08-17T07:44:13.449Z,95464.00
2018-08-17T07:46:43.960Z,95468.00
2018-08-17T07:49:14.082Z,95472.00
2018-08-17T07:51:45.208Z,95471.00
2018-08-17T07:54:15.660Z,95467.00
2018-08-17T07:56:47.592Z,95466.00
2018-08-17T07:59:18.517Z,95463.00
2018-08-17T08:01:48.662Z,95466.00
2018-08-17T08:04:18.869Z,95466.00
2018-08-17T08:06:49.336Z,95468.00
2018-08-17T08:09:19.636Z,95468.00
2018-08-17T08:11:49.771Z,95471.00
2018-08-17T08:14:20.289Z,95472.00
2018-08-17T08:16:52.189Z,95473.00
2018-08-17T08:19:24.229Z,95473.00
2018-08-17T08:21:55.429Z,95478.00
2018-08-17T08:24:25.839Z,95481.00
2018-08-17T08:26:56.036Z,95478.00
2018-08-17T08:29:26.440Z,95480.00
2018-08-17T08:31:56.725Z,95480.00
2018-08-17T08:34:27.257Z,95482.00
2018-08-17T08:36:58.672Z,95482.00
2018-08-17T08:39:29.651Z,95481.00
2018-08-17T08:42:00.059Z,95488.00
2018-08-17T08:44:30.476Z,95485.00
2018-08-17T08:47:00.800Z,95483.00
2018-08-17T08:49:31.524Z,95488.00
2018-08-17T08:52:03.627Z,95491.00
2018-08-17T08:54:34.117Z,95496.00
2018-08-17T08:57:08.314Z,95494.00
2018-08-17T08:59:38.600Z,95487.00
2018-08-17T09:02:11.345Z,95489.00
2018-08-17T09:04:42.112Z,95490.00
2018-08-17T09:07:13.988Z,95492.00
2018-08-17T09:09:46.486Z,95485.00
2018-08-17T09:12:17.618Z,95481.00
2018-08-17T09:14:47.854Z,95488.00
2018-08-17T09:17:17.953Z,95482.00
2018-08-17T09:19:49.123Z,95481.00
2018-08-17T09:22:21.263Z,95476.00
2018-08-17T09:24:51.719Z,95482.00
2018-08-17T09:27:22.848Z,95480.00
2018-08-17T09:29:53.483Z,95478.00
2018-08-17T09:32:24.612Z,95473.00
2018-08-17T09:34:55.139Z,95469.00
2018-08-17T09:37:25.496Z,95466.00
2018-08-17T09:39:56.163Z,95473.00
2018-08-17T09:42:26.686Z,95467.00
2018-08-17T09:44:57.281Z,95469.00
2018-08-17T09:47:27.607Z,95469.00
2018-08-17T09:49:57.965Z,95464.00
2018-08-17T09:52:28.194Z,95462.00
2018-08-17T09:54:58.967Z,95462.00
2018-08-17T09:57:29.529Z,95460.00
2018-08-17T10:00:00.032Z,95462.00
2018-08-17T10:02:35.289Z,95459.00
2018-08-17T10:05:10.832Z,95462.00
2018-08-17T10:07:46.978Z,95461.00
2018-08-17T10:10:25.187Z,95455.00
2018-08-17T10:12:55.585Z,95456.00
2018-08-17T10:15:27.502Z,95459.00
2018-08-17T10:17:58.019Z,95454.00
2018-08-17T10:20:29.896Z,95456.00
2018-08-17T10:23:00.384Z,95457.00
2018-08-17T10:25:31.090Z,95449.00
2018-08-17T10:28:02.672Z,95450.00
2018-08-17T10:30:33.451Z,95452.00
2018-08-17T10:33:04.261Z,95450.00
2018-08-17T10:35:36.939Z,95447.00
2018-08-17T10:38:09.217Z,95441.00
2018-08-17T10:40:39.740Z,95443.00
2018-08-17T10:43:11.060Z,95441.00
2018-08-17T10:45:41.538Z,95448.00
2018-08-17T10:48:11.937Z,95450.00
2018-08-17T10:50:42.571Z,95446.00
2018-08-17T10:53:12.781Z,95445.00
2018-08-17T10:55:49.669Z,95449.00
2018-08-17T10:58:20.561Z,95448.00
2018-08-17T11:00:50.944Z,95450.00
2018-08-17T11:03:21.244Z,95447.00
2018-08-17T11:05:51.632Z,95449.00
2018-08-17T11:08:21.997Z,95452.00
2018-08-17T11:10:52.347Z,95448.00
2018-08-17T11:13:22.832Z,95449.00
2018-08-17T11:15:53.032Z,95448.00
2018-08-17T11:18:23.707Z,95447.00
2018-08-17T11:20:55.780Z,95448.00
2018-08-17T11:23:26.396Z,95440.00
2018-08-17T11:25:56.998Z,95444.00
2018-08-17T11:28:27.220Z,95443.00
2018-08-17T11:30:57.684Z,95444.00
2018-08-17T11:33:29.607Z,95440.00
2018-08-17T11:36:00.604Z,95439.00
2018-08-17T11:38:31.003Z,95437.00
2018-08-17T11:41:01.743Z,95435.00
2018-08-17T11:43:32.280Z,95440.00
2018-08-17T11:46:03.524Z,95438.00
2018-08-17T11:48:35.638Z,95441.00
2018-08-17T11:51:06.030Z,95433.00
2018-08-17T11:53:36.239Z,95433.00
2018-08-17T11:56:06.737Z,95432.00
2018-08-17T11:58:37.044Z,95430.00
2018-08-17T12:01:13.838Z,95435.00
2018-08-17T12:03:44.566Z,95431.00
2018-08-17T12:06:15.078Z,95431.00
2018-08-17T12:08:45.656Z,95430.00
2018-08-17T12:11:16.104Z,95427.00
2018-08-17T12:13:46.702Z,95425.00
2018-08-17T12:16:17.136Z,95429.00
2018-08-17T12:18:48.169Z,95423.00
2018-08-17T12:21:18.687Z,95423.00
2018-08-17T18:54:59.294Z,95544.00
2018-08-17T18:57:29.720Z,95541.00
2018-08-17T19:00:00.100Z,95546.00
2018-08-17T19:02:31.101Z,95552.00
2018-08-17T19:05:02.552Z,95563.00
2018-08-17T19:07:33.373Z,95567.00
2018-08-17T19:10:04.663Z,95574.00
2018-08-17T19:12:38.115Z,95574.00
2018-08-17T19:15:11.146Z,95574.00
2018-08-17T19:17:42.382Z,95573.00
2018-08-17T19:20:14.946Z,95581.00
2018-08-17T19:22:48.653Z,95593.00
2018-08-17T19:25:24.679Z,95592.00
2018-08-17T19:27:56.226Z,95595.00
2018-08-17T19:30:31.762Z,95594.00
2018-08-17T19:33:07.927Z,95601.00
2018-08-17T19:35:41.272Z,95606.00
2018-08-17T19:38:12.788Z,95611.00
2018-08-17T19:40:44.465Z,95622.00
2018-08-17T19:43:15.152Z,95613.00
2018-08-17T19:45:46.183Z,95619.00
2018-08-17T19:48:16.964Z,95615.00
2018-08-17T19:50:48.830Z,95616.00
2018-08-17T19:53:21.151Z,95621.00
2018-08-17T19:55:51.899Z,95622.00
2018-08-17T19:58:22.383Z,95621.00
2018-08-17T20:00:52.941Z,95619.00
2018-08-17T20:03:23.656Z,95628.00
2018-08-17T20:05:53.967Z,95630.00
2018-08-17T20:08:24.599Z,95628.00
2018-08-17T20:10:56.109Z,95630.00
2018-08-17T20:13:26.506Z,95634.00
2018-08-17T20:15:57.553Z,95633.00
2018-08-17T20:18:28.100Z,95642.00
2018-08-17T20:20:58.813Z,95642.00
2018-08-17T20:23:29.356Z,95651.00
2018-08-17T20:26:00.108Z,95658.00
2018-08-17T20:28:31.598Z,95654.00
2018-08-17T20:31:02.140Z,95653.00
2018-08-17T20:33:32.664Z,95656.00
2018-08-17T20:36:03.327Z,95654.00
2018-08-17T20:38:33.959Z,95657.00
2018-08-17T20:41:04.502Z,95661.00
2018-08-17T20:43:35.234Z,95664.00
2018-08-17T20:46:06.165Z,95674.00
2018-08-17T20:48:38.924Z,95687.00
2018-08-17T20:51:10.774Z,95703.00
2018-08-17T20:53:43.582Z,95706.00
2018-08-17T20:56:14.288Z,95725.00
2018-08-17T20:58:44.580Z,95743.00
2018-08-17T21:01:14.931Z,95759.00
2018-08-17T21:03:45.291Z,95768.00
2018-08-17T21:06:16.391Z,95768.00
2018-08-17T21:08:47.177Z,95773.00
2018-08-17T21:11:17.922Z,95780.00
2018-08-17T21:13:48.475Z,95798.00
2018-08-17T21:16:23.440Z,95799.00
2018-08-17T21:18:55.982Z,95803.00
2018-08-17T21:21:26.413Z,95798.00
2018-08-17T21:23:57.192Z,95804.00
2018-08-17T21:26:28.142Z,95801.00
2018-08-17T21:28:59.117Z,95802.00
2018-08-17T21:31:31.082Z,95806.00
2018-08-17T21:34:01.898Z,95801.00
2018-08-17T21:36:32.213Z,95796.00
2018-08-17T21:39:19.088Z,95799.00
2018-08-17T21:41:50.067Z,95787.00
2018-08-17T21:44:21.544Z,95784.00
2018-08-17T21:46:56.935Z,95780.00
2018-08-17T21:49:27.415Z,95787.00
2018-08-17T21:52:00.493Z,95790.00
2018-08-17T21:54:33.312Z,95784.00
2018-08-17T21:57:04.810Z,95788.00
2018-08-17T21:59:40.197Z,95784.00
2018-08-17T22:02:11.914Z,95786.00
2018-08-17T22:04:42.337Z,95784.00
2018-08-17T22:07:20.047Z,95782.00
2018-08-17T22:09:51.243Z,95784.00
2018-08-17T22:12:21.780Z,95776.00
2018-08-17T22:14:52.209Z,95779.00
2018-08-17T22:17:35.526Z,95773.00
2018-08-17T22:20:07.958Z,95778.00
2018-08-17T22:22:39.111Z,95780.00
2018-08-17T22:25:17.881Z,95781.00
2018-08-17T22:27:51.485Z,95781.00
2018-08-17T22:30:24.742Z,95782.00
2018-08-17T22:32:56.391Z,95789.00
2018-08-17T22:35:28.622Z,95787.00
2018-08-17T22:38:00.180Z,95793.00
2018-08-17T22:40:31.484Z,95793.00
2018-08-17T22:43:02.406Z,95801.00
2018-08-17T22:45:32.937Z,95798.00
2018-08-17T22:48:04.115Z,95790.00
2018-08-17T22:50:34.455Z,95776.00
2018-08-17T22:53:05.546Z,95767.00
2018-08-17T22:55:35.878Z,95759.00
2018-08-17T22:58:07.955Z,95758.00
2018-08-17T23:00:43.995Z,95752.00
2018-08-17T23:03:14.270Z,95758.00
2018-08-17T23:05:44.661Z,95766.00
2018-08-17T23:08:14.870Z,95778.00
2018-08-17T23:10:45.170Z,95792.00
2018-08-17T23:13:15.682Z,95789.00
2018-08-17T23:15:46.133Z,95788.00
2018-08-17T23:18:16.471Z,95797.00
2018-08-17T23:20:46.985Z,95808.00
2018-08-17T23:23:17.230Z,95808.00
2018-08-17T23:25:47.810Z,95809.00
2018-08-17T23:28:18.147Z,95799.00
2018-08-17T23:30:48.492Z,95806.00
2018-08-17T23:33:18.754Z,95822.00
2018-08-17T23:35:49.125Z,95824.00
2018-08-17T23:38:19.478Z,95832.00
2018-08-17T23:40:49.969Z,95842.00
2018-08-17T23:43:20.437Z,95840.00
2018-08-17T23:45:50.917Z,95834.00
2018-08-17T23:48:21.171Z,95830.00
2018-08-17T23:50:52.370Z,95832.00
2018-08-17T23:53:22.791Z,95836.00
2018-08-17T23:55:53.316Z,95841.00
2018-08-17T23:58:23.539Z,95838.00
